sensor_id;sensor_type;location;lat;lon;timestamp;temperature;humidity
37658;DHT22;23500;53.268;8.308;2023-02-03T00:00:26;16.30;66.70
37658;DHT22;23500;53.268;8.308;2023-02-03T00:02:53;16.30;66.80
37658;DHT22;23500;53.268;8.308;2023-02-03T00:05:19;16.30;66.80
37658;DHT22;23500;53.268;8.308;2023-02-03T00:07:45;16.20;66.80
37658;DHT22;23500;53.268;8.308;2023-02-03T00:10:11;16.20;66.80
37658;DHT22;23500;53.268;8.308;2023-02-03T00:12:37;16.20;66.80
37658;DHT22;23500;53.268;8.308;2023-02-03T00:15:03;16.20;66.90
37658;DHT22;23500;53.268;8.308;2023-02-03T00:17:29;16.20;67.00
37658;DHT22;23500;53.268;8.308;2023-02-03T00:19:54;16.20;67.00
37658;DHT22;23500;53.268;8.308;2023-02-03T00:22:20;16.20;67.00
37658;DHT22;23500;53.268;8.308;2023-02-03T00:24:46;16.20;67.00
37658;DHT22;23500;53.268;8.308;2023-02-03T00:27:11;16.20;67.10
37658;DHT22;23500;53.268;8.308;2023-02-03T00:29:38;16.10;67.10
37658;DHT22;23500;53.268;8.308;2023-02-03T00:32:04;16.10;67.10
37658;DHT22;23500;53.268;8.308;2023-02-03T00:34:30;16.10;67.10
37658;DHT22;23500;53.268;8.308;2023-02-03T00:36:56;16.10;67.20
37658;DHT22;23500;53.268;8.308;2023-02-03T00:39:22;16.10;67.20
37658;DHT22;23500;53.268;8.308;2023-02-03T00:41:47;16.10;67.30
37658;DHT22;23500;53.268;8.308;2023-02-03T00:44:13;16.10;67.30
37658;DHT22;23500;53.268;8.308;2023-02-03T00:46:39;16.10;67.30
37658;DHT22;23500;53.268;8.308;2023-02-03T00:49:06;16.10;67.40
37658;DHT22;23500;53.268;8.308;2023-02-03T00:51:32;16.00;67.40
37658;DHT22;23500;53.268;8.308;2023-02-03T00:53:58;16.00;67.40
37658;DHT22;23500;53.268;8.308;2023-02-03T00:56:23;16.00;67.50
37658;DHT22;23500;53.268;8.308;2023-02-03T00:58:49;16.00;67.50
37658;DHT22;23500;53.268;8.308;2023-02-03T01:01:15;16.00;67.50
37658;DHT22;23500;53.268;8.308;2023-02-03T01:03:40;16.00;67.50
37658;DHT22;23500;53.268;8.308;2023-02-03T01:06:15;16.00;67.60
37658;DHT22;23500;53.268;8.308;2023-02-03T01:08:41;16.00;67.60
37658;DHT22;23500;53.268;8.308;2023-02-03T01:11:15;16.00;67.60
37658;DHT22;23500;53.268;8.308;2023-02-03T01:13:41;16.00;67.70
37658;DHT22;23500;53.268;8.308;2023-02-03T01:16:08;16.00;67.70
37658;DHT22;23500;53.268;8.308;2023-02-03T01:18:34;15.90;67.60
37658;DHT22;23500;53.268;8.308;2023-02-03T01:21:08;15.90;67.70
37658;DHT22;23500;53.268;8.308;2023-02-03T01:23:35;15.90;67.70
37658;DHT22;23500;53.268;8.308;2023-02-03T01:26:06;15.90;67.70
37658;DHT22;23500;53.268;8.308;2023-02-03T01:28:32;15.90;67.80
37658;DHT22;23500;53.268;8.308;2023-02-03T01:31:09;15.90;67.80
37658;DHT22;23500;53.268;8.308;2023-02-03T01:33:35;15.90;67.80
37658;DHT22;23500;53.268;8.308;2023-02-03T01:36:01;15.90;67.80
37658;DHT22;23500;53.268;8.308;2023-02-03T01:38:27;15.90;67.90
37658;DHT22;23500;53.268;8.308;2023-02-03T01:40:53;15.90;67.90
37658;DHT22;23500;53.268;8.308;2023-02-03T01:43:42;15.90;67.90
37658;DHT22;23500;53.268;8.308;2023-02-03T01:46:29;15.90;68.00
37658;DHT22;23500;53.268;8.308;2023-02-03T01:49:16;15.90;68.00
37658;DHT22;23500;53.268;8.308;2023-02-03T01:51:43;15.80;67.90
37658;DHT22;23500;53.268;8.308;2023-02-03T01:54:13;15.80;68.00
37658;DHT22;23500;53.268;8.308;2023-02-03T01:56:44;15.80;68.10
37658;DHT22;23500;53.268;8.308;2023-02-03T01:59:13;15.80;68.10
37658;DHT22;23500;53.268;8.308;2023-02-03T02:01:40;15.80;68.10
37658;DHT22;23500;53.268;8.308;2023-02-03T02:04:06;15.80;68.10
37658;DHT22;23500;53.268;8.308;2023-02-03T02:06:32;15.80;68.20
37658;DHT22;23500;53.268;8.308;2023-02-03T02:08:58;15.80;68.20
37658;DHT22;23500;53.268;8.308;2023-02-03T02:11:26;15.80;68.20
37658;DHT22;23500;53.268;8.308;2023-02-03T02:13:54;15.80;68.20
37658;DHT22;23500;53.268;8.308;2023-02-03T02:32:33;15.70;68.30
37658;DHT22;23500;53.268;8.308;2023-02-03T02:35:14;15.70;68.30
37658;DHT22;23500;53.268;8.308;2023-02-03T02:37:52;15.70;68.40
37658;DHT22;23500;53.268;8.308;2023-02-03T02:40:21;15.70;68.50
37658;DHT22;23500;53.268;8.308;2023-02-03T02:43:01;15.70;68.50
37658;DHT22;23500;53.268;8.308;2023-02-03T02:45:38;15.70;68.50
37658;DHT22;23500;53.268;8.308;2023-02-03T02:50:43;15.70;68.50
37658;DHT22;23500;53.268;8.308;2023-02-03T02:53:10;15.70;68.50
37658;DHT22;23500;53.268;8.308;2023-02-03T02:55:39;15.70;68.50
37658;DHT22;23500;53.268;8.308;2023-02-03T02:58:08;15.70;68.50
37658;DHT22;23500;53.268;8.308;2023-02-03T03:00:35;15.70;68.50
37658;DHT22;23500;53.268;8.308;2023-02-03T03:05:38;15.70;68.60
37658;DHT22;23500;53.268;8.308;2023-02-03T03:08:06;15.70;68.50
37658;DHT22;23500;53.268;8.308;2023-02-03T03:10:36;15.70;68.50
37658;DHT22;23500;53.268;8.308;2023-02-03T03:13:07;15.70;68.50
37658;DHT22;23500;53.268;8.308;2023-02-03T03:15:35;15.60;68.50
37658;DHT22;23500;53.268;8.308;2023-02-03T03:20:28;15.60;68.60
37658;DHT22;23500;53.268;8.308;2023-02-03T03:23:06;15.60;68.60
37658;DHT22;23500;53.268;8.308;2023-02-03T03:25:41;15.60;68.60
37658;DHT22;23500;53.268;8.308;2023-02-03T03:28:12;15.60;68.60
37658;DHT22;23500;53.268;8.308;2023-02-03T03:30:40;15.60;68.60
37658;DHT22;23500;53.268;8.308;2023-02-03T03:33:06;15.60;68.60
37658;DHT22;23500;53.268;8.308;2023-02-03T03:35:52;15.60;68.60
37658;DHT22;23500;53.268;8.308;2023-02-03T03:38:48;15.60;68.70
37658;DHT22;23500;53.268;8.308;2023-02-03T03:41:20;15.60;68.70
37658;DHT22;23500;53.268;8.308;2023-02-03T03:43:47;15.60;68.70
37658;DHT22;23500;53.268;8.308;2023-02-03T03:46:19;15.60;68.70
37658;DHT22;23500;53.268;8.308;2023-02-03T03:49:06;15.60;68.80
37658;DHT22;23500;53.268;8.308;2023-02-03T03:51:41;15.60;68.80
37658;DHT22;23500;53.268;8.308;2023-02-03T03:54:12;15.60;68.80
37658;DHT22;23500;53.268;8.308;2023-02-03T03:59:35;15.60;68.80
37658;DHT22;23500;53.268;8.308;2023-02-03T04:02:03;15.60;68.80
37658;DHT22;23500;53.268;8.308;2023-02-03T04:04:29;15.60;68.90
37658;DHT22;23500;53.268;8.308;2023-02-03T04:06:56;15.50;68.80
37658;DHT22;23500;53.268;8.308;2023-02-03T04:09:22;15.50;68.90
37658;DHT22;23500;53.268;8.308;2023-02-03T04:11:48;15.50;68.90
37658;DHT22;23500;53.268;8.308;2023-02-03T04:14:27;15.50;68.80
37658;DHT22;23500;53.268;8.308;2023-02-03T04:16:52;15.50;68.90
37658;DHT22;23500;53.268;8.308;2023-02-03T04:19:18;15.50;68.80
37658;DHT22;23500;53.268;8.308;2023-02-03T04:21:43;15.50;68.90
37658;DHT22;23500;53.268;8.308;2023-02-03T04:24:09;15.50;68.90
37658;DHT22;23500;53.268;8.308;2023-02-03T04:26:36;15.50;68.90
37658;DHT22;23500;53.268;8.308;2023-02-03T04:29:02;15.50;69.00
37658;DHT22;23500;53.268;8.308;2023-02-03T04:31:28;15.50;71.70
37658;DHT22;23500;53.268;8.308;2023-02-03T04:33:53;15.60;82.40
37658;DHT22;23500;53.268;8.308;2023-02-03T04:36:19;15.50;68.80
37658;DHT22;23500;53.268;8.308;2023-02-03T04:38:45;15.50;68.80
37658;DHT22;23500;53.268;8.308;2023-02-03T04:41:12;15.50;68.80
37658;DHT22;23500;53.268;8.308;2023-02-03T04:43:38;15.50;68.90
37658;DHT22;23500;53.268;8.308;2023-02-03T04:46:03;15.50;68.90
37658;DHT22;23500;53.268;8.308;2023-02-03T04:48:29;15.50;68.90
37658;DHT22;23500;53.268;8.308;2023-02-03T04:50:59;15.50;68.90
37658;DHT22;23500;53.268;8.308;2023-02-03T04:53:25;15.50;68.90
37658;DHT22;23500;53.268;8.308;2023-02-03T04:55:50;15.50;68.90
37658;DHT22;23500;53.268;8.308;2023-02-03T04:58:16;15.50;68.90
37658;DHT22;23500;53.268;8.308;2023-02-03T05:00:41;15.50;68.90
37658;DHT22;23500;53.268;8.308;2023-02-03T05:03:07;15.50;69.60
37658;DHT22;23500;53.268;8.308;2023-02-03T05:05:33;15.50;68.90
37658;DHT22;23500;53.268;8.308;2023-02-03T05:07:59;15.50;68.90
37658;DHT22;23500;53.268;8.308;2023-02-03T05:10:24;15.50;68.90
37658;DHT22;23500;53.268;8.308;2023-02-03T05:12:51;15.50;68.90
37658;DHT22;23500;53.268;8.308;2023-02-03T05:15:16;15.50;68.90
37658;DHT22;23500;53.268;8.308;2023-02-03T05:17:42;15.50;68.90
37658;DHT22;23500;53.268;8.308;2023-02-03T05:20:08;15.50;68.90
37658;DHT22;23500;53.268;8.308;2023-02-03T05:22:34;15.50;68.90
37658;DHT22;23500;53.268;8.308;2023-02-03T05:25:01;15.50;68.90
37658;DHT22;23500;53.268;8.308;2023-02-03T05:27:26;15.50;68.90
37658;DHT22;23500;53.268;8.308;2023-02-03T05:29:52;15.50;68.90
37658;DHT22;23500;53.268;8.308;2023-02-03T05:32:17;15.50;68.90
37658;DHT22;23500;53.268;8.308;2023-02-03T05:34:43;15.50;68.90
37658;DHT22;23500;53.268;8.308;2023-02-03T05:37:09;15.50;68.90
37658;DHT22;23500;53.268;8.308;2023-02-03T05:39:34;15.50;69.00
37658;DHT22;23500;53.268;8.308;2023-02-03T05:42:00;15.50;68.90
37658;DHT22;23500;53.268;8.308;2023-02-03T05:44:28;15.50;69.00
37658;DHT22;23500;53.268;8.308;2023-02-03T05:46:56;15.40;68.90
37658;DHT22;23500;53.268;8.308;2023-02-03T05:49:22;15.40;68.90
37658;DHT22;23500;53.268;8.308;2023-02-03T05:51:49;15.40;68.90
37658;DHT22;23500;53.268;8.308;2023-02-03T05:54:15;15.40;68.90
37658;DHT22;23500;53.268;8.308;2023-02-03T05:56:41;15.40;68.90
37658;DHT22;23500;53.268;8.308;2023-02-03T05:59:07;15.40;68.90
37658;DHT22;23500;53.268;8.308;2023-02-03T06:01:33;15.40;69.00
37658;DHT22;23500;53.268;8.308;2023-02-03T06:03:59;15.40;68.90
37658;DHT22;23500;53.268;8.308;2023-02-03T06:06:25;15.40;69.00
37658;DHT22;23500;53.268;8.308;2023-02-03T06:08:58;15.40;69.00
37658;DHT22;23500;53.268;8.308;2023-02-03T06:11:23;15.40;69.00
37658;DHT22;23500;53.268;8.308;2023-02-03T06:13:49;15.40;69.00
37658;DHT22;23500;53.268;8.308;2023-02-03T06:16:15;15.40;69.00
37658;DHT22;23500;53.268;8.308;2023-02-03T06:18:41;15.40;69.00
37658;DHT22;23500;53.268;8.308;2023-02-03T06:21:07;15.40;69.00
37658;DHT22;23500;53.268;8.308;2023-02-03T06:23:33;15.50;68.90
37658;DHT22;23500;53.268;8.308;2023-02-03T06:25:58;15.60;68.80
37658;DHT22;23500;53.268;8.308;2023-02-03T06:28:25;16.10;67.20
37658;DHT22;23500;53.268;8.308;2023-02-03T06:30:52;17.00;64.20
37658;DHT22;23500;53.268;8.308;2023-02-03T06:33:18;18.00;60.70
37658;DHT22;23500;53.268;8.308;2023-02-03T06:35:44;18.90;58.30
37658;DHT22;23500;53.268;8.308;2023-02-03T06:38:10;19.80;55.90
37658;DHT22;23500;53.268;8.308;2023-02-03T06:40:36;20.60;53.80
37658;DHT22;23500;53.268;8.308;2023-02-03T06:43:01;21.40;52.00
37658;DHT22;23500;53.268;8.308;2023-02-03T06:45:27;22.10;50.50
37658;DHT22;23500;53.268;8.308;2023-02-03T06:47:53;22.70;49.30
37658;DHT22;23500;53.268;8.308;2023-02-03T06:50:19;23.10;48.30
37658;DHT22;23500;53.268;8.308;2023-02-03T06:52:45;23.40;47.50
37658;DHT22;23500;53.268;8.308;2023-02-03T06:55:13;23.70;46.80
37658;DHT22;23500;53.268;8.308;2023-02-03T06:57:45;23.70;46.80
37658;DHT22;23500;53.268;8.308;2023-02-03T07:00:12;23.60;47.00
37658;DHT22;23500;53.268;8.308;2023-02-03T07:02:39;23.40;47.40
37658;DHT22;23500;53.268;8.308;2023-02-03T07:05:05;23.30;47.70
37658;DHT22;23500;53.268;8.308;2023-02-03T07:07:31;23.20;47.70
37658;DHT22;23500;53.268;8.308;2023-02-03T07:09:59;23.30;47.40
37658;DHT22;23500;53.268;8.308;2023-02-03T07:12:24;23.40;47.40
37658;DHT22;23500;53.268;8.308;2023-02-03T07:14:50;23.30;47.50
37658;DHT22;23500;53.268;8.308;2023-02-03T07:17:15;23.20;47.70
37658;DHT22;23500;53.268;8.308;2023-02-03T07:19:41;23.10;48.10
37658;DHT22;23500;53.268;8.308;2023-02-03T07:22:09;22.80;48.50
37658;DHT22;23500;53.268;8.308;2023-02-03T07:24:35;22.60;49.00
37658;DHT22;23500;53.268;8.308;2023-02-03T07:27:01;22.40;49.70
37658;DHT22;23500;53.268;8.308;2023-02-03T07:29:27;22.10;50.30
37658;DHT22;23500;53.268;8.308;2023-02-03T07:31:52;21.80;51.00
37658;DHT22;23500;53.268;8.308;2023-02-03T07:34:18;21.50;51.70
37658;DHT22;23500;53.268;8.308;2023-02-03T07:36:44;21.10;52.40
37658;DHT22;23500;53.268;8.308;2023-02-03T07:39:10;20.90;53.00
37658;DHT22;23500;53.268;8.308;2023-02-03T07:41:35;20.60;53.60
37658;DHT22;23500;53.268;8.308;2023-02-03T07:44:01;20.40;54.10
37658;DHT22;23500;53.268;8.308;2023-02-03T07:46:27;20.20;54.60
37658;DHT22;23500;53.268;8.308;2023-02-03T07:48:52;20.00;55.10
37658;DHT22;23500;53.268;8.308;2023-02-03T07:51:18;19.80;55.50
37658;DHT22;23500;53.268;8.308;2023-02-03T07:53:44;19.70;56.00
37658;DHT22;23500;53.268;8.308;2023-02-03T07:56:10;19.50;56.30
37658;DHT22;23500;53.268;8.308;2023-02-03T07:58:36;19.30;56.80
37658;DHT22;23500;53.268;8.308;2023-02-03T08:01:09;19.20;57.00
37658;DHT22;23500;53.268;8.308;2023-02-03T08:03:35;19.20;57.10
37658;DHT22;23500;53.268;8.308;2023-02-03T08:06:02;19.30;57.00
37658;DHT22;23500;53.268;8.308;2023-02-03T08:08:27;19.60;56.10
37658;DHT22;23500;53.268;8.308;2023-02-03T08:10:54;20.10;54.90
37658;DHT22;23500;53.268;8.308;2023-02-03T08:13:20;20.60;53.90
37658;DHT22;23500;53.268;8.308;2023-02-03T08:15:46;21.00;52.70
37658;DHT22;23500;53.268;8.308;2023-02-03T08:18:12;21.40;51.90
37658;DHT22;23500;53.268;8.308;2023-02-03T08:20:38;21.60;51.20
37658;DHT22;23500;53.268;8.308;2023-02-03T08:23:04;21.80;50.90
37658;DHT22;23500;53.268;8.308;2023-02-03T08:25:29;21.80;51.00
37658;DHT22;23500;53.268;8.308;2023-02-03T08:27:55;21.80;51.20
37658;DHT22;23500;53.268;8.308;2023-02-03T08:30:21;21.70;51.50
37658;DHT22;23500;53.268;8.308;2023-02-03T08:32:47;21.50;51.80
37658;DHT22;23500;53.268;8.308;2023-02-03T08:35:13;21.30;52.30
37658;DHT22;23500;53.268;8.308;2023-02-03T08:37:39;21.10;52.70
37658;DHT22;23500;53.268;8.308;2023-02-03T08:40:05;21.00;53.10
37658;DHT22;23500;53.268;8.308;2023-02-03T08:42:31;20.80;53.40
37658;DHT22;23500;53.268;8.308;2023-02-03T08:44:57;20.60;53.80
37658;DHT22;23500;53.268;8.308;2023-02-03T08:47:23;20.40;54.20
37658;DHT22;23500;53.268;8.308;2023-02-03T08:49:48;20.30;54.60
37658;DHT22;23500;53.268;8.308;2023-02-03T08:52:15;20.10;55.00
37658;DHT22;23500;53.268;8.308;2023-02-03T08:54:41;20.00;55.40
37658;DHT22;23500;53.268;8.308;2023-02-03T08:57:07;19.80;55.70
37658;DHT22;23500;53.268;8.308;2023-02-03T08:59:33;19.60;56.00
37658;DHT22;23500;53.268;8.308;2023-02-03T09:02:03;19.50;56.40
37658;DHT22;23500;53.268;8.308;2023-02-03T09:04:29;19.40;56.70
37658;DHT22;23500;53.268;8.308;2023-02-03T09:06:58;19.30;57.00
37658;DHT22;23500;53.268;8.308;2023-02-03T09:09:24;19.20;57.30
37658;DHT22;23500;53.268;8.308;2023-02-03T09:11:52;19.10;57.60
37658;DHT22;23500;53.268;8.308;2023-02-03T09:14:19;19.00;57.90
37658;DHT22;23500;53.268;8.308;2023-02-03T09:16:45;18.90;58.10
37658;DHT22;23500;53.268;8.308;2023-02-03T09:19:11;19.10;57.80
37658;DHT22;23500;53.268;8.308;2023-02-03T09:21:38;19.30;57.10
37658;DHT22;23500;53.268;8.308;2023-02-03T09:24:04;19.70;56.30
37658;DHT22;23500;53.268;8.308;2023-02-03T09:26:29;20.00;55.70
37658;DHT22;23500;53.268;8.308;2023-02-03T09:28:55;20.10;55.20
37658;DHT22;23500;53.268;8.308;2023-02-03T09:31:21;20.20;55.00
37658;DHT22;23500;53.268;8.308;2023-02-03T09:33:46;20.30;55.00
37658;DHT22;23500;53.268;8.308;2023-02-03T09:36:13;20.30;55.00
37658;DHT22;23500;53.268;8.308;2023-02-03T09:38:39;20.20;55.10
37658;DHT22;23500;53.268;8.308;2023-02-03T09:46:54;20.00;55.60
37658;DHT22;23500;53.268;8.308;2023-02-03T09:49:25;19.90;55.70
37658;DHT22;23500;53.268;8.308;2023-02-03T09:52:18;19.80;56.00
37658;DHT22;23500;53.268;8.308;2023-02-03T09:54:59;19.60;56.30
37658;DHT22;23500;53.268;8.308;2023-02-03T09:57:27;19.60;56.50
37658;DHT22;23500;53.268;8.308;2023-02-03T09:59:56;19.50;56.70
37658;DHT22;23500;53.268;8.308;2023-02-03T10:08:08;19.20;57.40
37658;DHT22;23500;53.268;8.308;2023-02-03T10:10:44;19.10;57.70
37658;DHT22;23500;53.268;8.308;2023-02-03T10:13:27;19.00;57.90
37658;DHT22;23500;53.268;8.308;2023-02-03T10:16:32;18.90;58.20
37658;DHT22;23500;53.268;8.308;2023-02-03T10:19:03;18.90;58.40
37658;DHT22;23500;53.268;8.308;2023-02-03T10:21:43;19.20;57.40
37658;DHT22;23500;53.268;8.308;2023-02-03T10:27:24;20.10;55.10
37658;DHT22;23500;53.268;8.308;2023-02-03T10:30:05;20.40;54.60
37658;DHT22;23500;53.268;8.308;2023-02-03T10:32:34;20.50;54.40
37658;DHT22;23500;53.268;8.308;2023-02-03T10:35:00;20.50;54.40
37658;DHT22;23500;53.268;8.308;2023-02-03T10:37:49;20.40;54.60
37658;DHT22;23500;53.268;8.308;2023-02-03T10:40:15;20.40;54.70
37658;DHT22;23500;53.268;8.308;2023-02-03T10:42:43;20.30;55.00
37658;DHT22;23500;53.268;8.308;2023-02-03T10:45:33;20.20;55.10
37658;DHT22;23500;53.268;8.308;2023-02-03T10:48:03;20.10;55.30
37658;DHT22;23500;53.268;8.308;2023-02-03T10:50:29;20.00;55.60
37658;DHT22;23500;53.268;8.308;2023-02-03T10:53:32;19.90;55.80
37658;DHT22;23500;53.268;8.308;2023-02-03T10:58:30;19.80;56.10
37658;DHT22;23500;53.268;8.308;2023-02-03T11:01:25;19.80;56.20
37658;DHT22;23500;53.268;8.308;2023-02-03T11:04:00;19.60;56.60
37658;DHT22;23500;53.268;8.308;2023-02-03T11:06:28;19.50;56.90
37658;DHT22;23500;53.268;8.308;2023-02-03T11:08:55;19.50;56.90
37658;DHT22;23500;53.268;8.308;2023-02-03T11:13:55;19.90;56.00
37658;DHT22;23500;53.268;8.308;2023-02-03T11:16:21;20.30;54.80
37658;DHT22;23500;53.268;8.308;2023-02-03T11:19:06;20.60;54.00
37658;DHT22;23500;53.268;8.308;2023-02-03T11:24:31;20.90;53.40
37658;DHT22;23500;53.268;8.308;2023-02-03T11:27:03;21.00;53.30
37658;DHT22;23500;53.268;8.308;2023-02-03T11:29:36;21.00;53.30
37658;DHT22;23500;53.268;8.308;2023-02-03T11:32:27;21.00;53.40
37658;DHT22;23500;53.268;8.308;2023-02-03T11:35:17;21.00;53.60
37658;DHT22;23500;53.268;8.308;2023-02-03T11:37:50;20.80;53.80
37658;DHT22;23500;53.268;8.308;2023-02-03T11:43:13;20.50;54.50
37658;DHT22;23500;53.268;8.308;2023-02-03T11:45:44;20.40;54.90
37658;DHT22;23500;53.268;8.308;2023-02-03T11:48:31;20.30;55.30
37658;DHT22;23500;53.268;8.308;2023-02-03T11:56:54;20.00;55.90
37658;DHT22;23500;53.268;8.308;2023-02-03T12:18:17;20.00;56.00
37658;DHT22;23500;53.268;8.308;2023-02-03T12:23:53;20.40;54.90
37658;DHT22;23500;53.268;8.308;2023-02-03T12:26:24;20.70;54.30
37658;DHT22;23500;53.268;8.308;2023-02-03T12:28:53;20.90;53.80
37658;DHT22;23500;53.268;8.308;2023-02-03T12:31:29;21.00;53.30
37658;DHT22;23500;53.268;8.308;2023-02-03T12:39:28;21.00;53.50
37658;DHT22;23500;53.268;8.308;2023-02-03T12:42:11;20.90;53.90
37658;DHT22;23500;53.268;8.308;2023-02-03T12:44:58;20.70;54.20
37658;DHT22;23500;53.268;8.308;2023-02-03T12:47:33;20.50;54.70
37658;DHT22;23500;53.268;8.308;2023-02-03T12:50:28;20.30;55.10
37658;DHT22;23500;53.268;8.308;2023-02-03T12:53:01;20.20;55.50
37658;DHT22;23500;53.268;8.308;2023-02-03T12:55:57;20.10;55.70
37658;DHT22;23500;53.268;8.308;2023-02-03T12:58:28;20.00;56.00
37658;DHT22;23500;53.268;8.308;2023-02-03T13:01:21;19.80;56.20
37658;DHT22;23500;53.268;8.308;2023-02-03T13:09:33;19.60;57.00
37658;DHT22;23500;53.268;8.308;2023-02-03T13:12:38;19.40;57.30
37658;DHT22;23500;53.268;8.308;2023-02-03T13:20:27;20.50;54.70
37658;DHT22;23500;53.268;8.308;2023-02-03T13:22:57;20.90;53.60
37658;DHT22;23500;53.268;8.308;2023-02-03T13:36:49;21.90;51.60
37658;DHT22;23500;53.268;8.308;2023-02-03T13:39:24;21.70;52.00
37658;DHT22;23500;53.268;8.308;2023-02-03T13:44:41;21.30;52.80
37658;DHT22;23500;53.268;8.308;2023-02-03T13:47:17;21.10;53.40
37658;DHT22;23500;53.268;8.308;2023-02-03T13:49:45;20.80;53.90
37658;DHT22;23500;53.268;8.308;2023-02-03T13:55:37;20.50;54.90
37658;DHT22;23500;53.268;8.308;2023-02-03T13:58:04;20.30;55.20
37658;DHT22;23500;53.268;8.308;2023-02-03T14:04:03;20.00;55.80
37658;DHT22;23500;53.268;8.308;2023-02-03T14:06:04;20.00;56.70
37658;DHT22;23500;53.268;8.308;2023-02-03T14:16:43;19.50;57.40
37658;DHT22;23500;53.268;8.308;2023-02-03T14:22:03;19.70;56.70
37658;DHT22;23500;53.268;8.308;2023-02-03T14:24:35;20.10;55.80
37658;DHT22;23500;53.268;8.308;2023-02-03T14:27:05;20.50;54.70
37658;DHT22;23500;53.268;8.308;2023-02-03T14:29:40;20.70;54.20
37658;DHT22;23500;53.268;8.308;2023-02-03T14:32:10;20.90;54.00
37658;DHT22;23500;53.268;8.308;2023-02-03T14:34:48;20.90;54.00
37658;DHT22;23500;53.268;8.308;2023-02-03T14:37:23;20.90;54.00
37658;DHT22;23500;53.268;8.308;2023-02-03T14:43:27;20.70;54.40
37658;DHT22;23500;53.268;8.308;2023-02-03T14:54:02;20.10;55.90
37658;DHT22;23500;53.268;8.308;2023-02-03T14:59:48;19.90;56.40
37658;DHT22;23500;53.268;8.308;2023-02-03T15:02:27;19.90;56.60
37658;DHT22;23500;53.268;8.308;2023-02-03T15:07:49;19.60;58.70
37658;DHT22;23500;53.268;8.308;2023-02-03T15:10:21;19.60;60.00
37658;DHT22;23500;53.268;8.308;2023-02-03T15:12:57;19.40;58.00
37658;DHT22;23500;53.268;8.308;2023-02-03T15:15:24;19.30;59.60
37658;DHT22;23500;53.268;8.308;2023-02-03T15:17:52;19.20;58.00
37658;DHT22;23500;53.268;8.308;2023-02-03T15:22:53;19.10;64.70
37658;DHT22;23500;53.268;8.308;2023-02-03T15:25:21;19.00;58.70
37658;DHT22;23500;53.268;8.308;2023-02-03T15:27:47;18.90;58.90
37658;DHT22;23500;53.268;8.308;2023-02-03T15:30:14;18.80;59.10
37658;DHT22;23500;53.268;8.308;2023-02-03T15:32:46;18.80;59.30
37658;DHT22;23500;53.268;8.308;2023-02-03T15:35:16;19.00;58.90
37658;DHT22;23500;53.268;8.308;2023-02-03T15:37:56;19.30;58.20
37658;DHT22;23500;53.268;8.308;2023-02-03T15:40:33;19.50;57.40
37658;DHT22;23500;53.268;8.308;2023-02-03T15:45:43;19.80;56.90
37658;DHT22;23500;53.268;8.308;2023-02-03T15:48:34;19.70;57.10
37658;DHT22;23500;53.268;8.308;2023-02-03T15:51:03;19.50;57.40
37658;DHT22;23500;53.268;8.308;2023-02-03T15:56:49;19.40;57.90
37658;DHT22;23500;53.268;8.308;2023-02-03T15:59:32;19.30;58.00
37658;DHT22;23500;53.268;8.308;2023-02-03T16:02:01;19.30;58.20
37658;DHT22;23500;53.268;8.308;2023-02-03T16:04:30;19.20;58.30
37658;DHT22;23500;53.268;8.308;2023-02-03T16:06:56;19.10;58.40
37658;DHT22;23500;53.268;8.308;2023-02-03T16:09:31;19.10;58.60
37658;DHT22;23500;53.268;8.308;2023-02-03T16:12:17;19.00;58.70
37658;DHT22;23500;53.268;8.308;2023-02-03T16:14:46;19.00;58.90
37658;DHT22;23500;53.268;8.308;2023-02-03T16:17:30;18.90;59.10
37658;DHT22;23500;53.268;8.308;2023-02-03T16:22:41;18.70;59.60
37658;DHT22;23500;53.268;8.308;2023-02-03T16:25:19;18.60;59.80
37658;DHT22;23500;53.268;8.308;2023-02-03T16:28:36;18.50;60.00
37658;DHT22;23500;53.268;8.308;2023-02-03T16:31:14;18.50;60.20
37658;DHT22;23500;53.268;8.308;2023-02-03T16:34:00;18.60;60.10
37658;DHT22;23500;53.268;8.308;2023-02-03T16:36:44;19.10;58.70
37658;DHT22;23500;53.268;8.308;2023-02-03T16:39:28;19.40;58.00
37658;DHT22;23500;53.268;8.308;2023-02-03T16:42:15;19.50;57.70
37658;DHT22;23500;53.268;8.308;2023-02-03T16:44:59;19.50;57.70
37658;DHT22;23500;53.268;8.308;2023-02-03T16:47:44;19.40;58.00
37658;DHT22;23500;53.268;8.308;2023-02-03T16:50:29;19.30;58.10
37658;DHT22;23500;53.268;8.308;2023-02-03T16:53:18;19.30;58.30
37658;DHT22;23500;53.268;8.308;2023-02-03T16:55:45;19.20;58.50
37658;DHT22;23500;53.268;8.308;2023-02-03T16:58:10;19.10;58.60
37658;DHT22;23500;53.268;8.308;2023-02-03T17:00:41;19.10;58.80
37658;DHT22;23500;53.268;8.308;2023-02-03T17:03:11;19.10;58.90
37658;DHT22;23500;53.268;8.308;2023-02-03T17:05:42;19.00;59.60
37658;DHT22;23500;53.268;8.308;2023-02-03T17:08:07;18.90;59.10
37658;DHT22;23500;53.268;8.308;2023-02-03T17:10:37;18.90;59.30
37658;DHT22;23500;53.268;8.308;2023-02-03T17:13:03;18.80;59.40
37658;DHT22;23500;53.268;8.308;2023-02-03T17:15:29;18.70;59.60
37658;DHT22;23500;53.268;8.308;2023-02-03T17:17:57;18.60;59.70
37658;DHT22;23500;53.268;8.308;2023-02-03T17:20:22;18.50;59.90
37658;DHT22;23500;53.268;8.308;2023-02-03T17:22:48;18.50;60.20
37658;DHT22;23500;53.268;8.308;2023-02-03T17:25:17;18.50;60.50
37658;DHT22;23500;53.268;8.308;2023-02-03T17:27:43;18.40;60.60
37658;DHT22;23500;53.268;8.308;2023-02-03T17:30:10;18.40;60.70
37658;DHT22;23500;53.268;8.308;2023-02-03T17:32:35;18.40;60.80
37658;DHT22;23500;53.268;8.308;2023-02-03T17:35:01;18.40;60.90
37658;DHT22;23500;53.268;8.308;2023-02-03T17:37:27;18.40;61.00
37658;DHT22;23500;53.268;8.308;2023-02-03T17:39:52;18.40;61.00
37658;DHT22;23500;53.268;8.308;2023-02-03T17:42:18;18.40;61.10
37658;DHT22;23500;53.268;8.308;2023-02-03T17:44:43;18.30;61.10
37658;DHT22;23500;53.268;8.308;2023-02-03T17:47:09;18.30;61.10
37658;DHT22;23500;53.268;8.308;2023-02-03T17:49:35;18.30;61.20
37658;DHT22;23500;53.268;8.308;2023-02-03T17:52:00;18.30;61.20
37658;DHT22;23500;53.268;8.308;2023-02-03T17:54:26;18.30;61.20
37658;DHT22;23500;53.268;8.308;2023-02-03T17:56:52;18.30;61.20
37658;DHT22;23500;53.268;8.308;2023-02-03T17:59:17;18.30;61.30
37658;DHT22;23500;53.268;8.308;2023-02-03T18:01:43;18.20;61.30
37658;DHT22;23500;53.268;8.308;2023-02-03T18:04:11;18.20;61.30
37658;DHT22;23500;53.268;8.308;2023-02-03T18:06:37;18.20;61.40
37658;DHT22;23500;53.268;8.308;2023-02-03T18:09:05;18.10;61.60
37658;DHT22;23500;53.268;8.308;2023-02-03T18:11:32;18.10;61.70
37658;DHT22;23500;53.268;8.308;2023-02-03T18:13:58;18.10;61.70
37658;DHT22;23500;53.268;8.308;2023-02-03T18:16:26;18.00;61.90
37658;DHT22;23500;53.268;8.308;2023-02-03T18:19:01;18.00;62.00
37658;DHT22;23500;53.268;8.308;2023-02-03T18:21:27;18.00;61.90
37658;DHT22;23500;53.268;8.308;2023-02-03T18:23:53;18.00;62.30